CheckWX is a tool to help pilots better visualize weather data.  It is not intended as a substitute for an official pre-flight weather briefing.

00:39:15 UTC

HAAB METAR
Addis Ababa Bole International Airport
Addis Ababa, Ethiopia
Current

39 mins ago

HAAB 270000Z 13004KT 9999 FEW025 16/09 Q1027
Observed
Mar-27 @ 00:00 UTC
Wind
  • 130° at 4 KTS
Visibility
10,000+ meters
Flight Rules
VFR
Cloud Levels
  • Few at 2,500' AGL
Temperature
16°C / 61°F
Dewpoint
C / 48°F
Humidity
63%
Altimeter
30.32" Hg
Pressure
1026.92 hPa
Previous

2 hours ago

HAAB 262300Z 04006KT 9999 FEW025 18/09 Q1027
Observed
Mar-26 @ 23:00 UTC
Wind
  • 040° at 6 KTS
Visibility
10,000+ meters
Flight Rules
VFR
Cloud Levels
  • Few at 2,500' AGL
Temperature
18°C / 64°F
Dewpoint
C / 48°F
Humidity
56%
Altimeter
30.32" Hg
Pressure
1026.92 hPa
Previous

3 hours ago

HAAB 262200Z 07006KT 9999 FEW025 18/09 Q1028
Observed
Mar-26 @ 22:00 UTC
Wind
  • 070° at 6 KTS
Visibility
10,000+ meters
Flight Rules
VFR
Cloud Levels
  • Few at 2,500' AGL
Temperature
18°C / 64°F
Dewpoint
C / 48°F
Humidity
56%
Altimeter
30.35" Hg
Pressure
1027.92 hPa